createdAt,value
2018-11-11T00:00:25.055Z,10.77
2018-11-11T00:02:54.334Z,12.10
2018-11-11T00:05:22.673Z,10.33
2018-11-11T00:07:51.095Z,9.77
2018-11-11T00:10:19.444Z,9.60
2018-11-11T00:12:47.792Z,9.00
2018-11-11T00:15:17.158Z,10.07
2018-11-11T00:17:46.541Z,9.37
2018-11-11T00:20:14.928Z,9.27
2018-11-11T00:22:43.483Z,10.53
2018-11-11T00:25:11.885Z,10.60
2018-11-11T00:27:40.768Z,10.90
2018-11-11T00:30:13.350Z,9.53
2018-11-11T00:32:41.772Z,9.30
2018-11-11T00:35:10.517Z,9.17
2018-11-11T00:37:39.317Z,10.00
2018-11-11T00:40:09.074Z,10.60
2018-11-11T00:42:37.432Z,10.33
2018-11-11T00:45:06.539Z,9.43
2018-11-11T00:47:34.920Z,9.83
2018-11-11T00:50:03.274Z,10.20
2018-11-11T00:52:31.650Z,10.97
2018-11-11T00:55:00.054Z,10.10
2018-11-11T00:57:28.404Z,11.17
2018-11-11T00:59:56.751Z,10.27
2018-11-11T01:02:25.155Z,10.20
2018-11-11T01:04:53.527Z,10.33
2018-11-11T01:07:21.848Z,11.23
2018-11-11T01:09:50.210Z,11.87
2018-11-11T01:12:18.629Z,11.97
2018-11-11T01:14:47.006Z,10.80
2018-11-11T01:17:16.108Z,11.17
2018-11-11T01:19:44.443Z,10.57
2018-11-11T01:22:12.790Z,12.23
2018-11-11T01:24:41.176Z,13.20
2018-11-11T01:27:09.533Z,13.23
2018-11-11T01:29:37.897Z,11.77
2018-11-11T01:32:06.214Z,11.70
2018-11-11T01:34:34.576Z,12.73
2018-11-11T01:37:02.902Z,11.30
2018-11-11T01:39:31.244Z,10.67
2018-11-11T01:42:06.461Z,11.80
2018-11-11T01:44:35.046Z,11.83
2018-11-11T01:47:03.368Z,11.03
2018-11-11T01:49:31.703Z,11.37
2018-11-11T01:52:00.094Z,10.93
2018-11-11T01:54:28.436Z,11.27
2018-11-11T01:56:56.767Z,11.53
2018-11-11T01:59:25.332Z,13.00
2018-11-11T02:01:53.646Z,12.33
2018-11-11T02:04:21.990Z,11.37
2018-11-11T02:06:50.318Z,12.17
2018-11-11T02:09:18.672Z,12.47
2018-11-11T02:11:47.000Z,12.60
2018-11-11T02:14:15.338Z,12.13
2018-11-11T02:16:43.720Z,12.07
2018-11-11T02:19:12.053Z,11.77
2018-11-11T02:21:40.537Z,12.30
2018-11-11T02:24:08.847Z,12.57
2018-11-11T02:26:37.156Z,12.73
2018-11-11T02:29:05.789Z,12.37
2018-11-11T02:31:34.131Z,12.77
2018-11-11T02:34:02.496Z,14.63
2018-11-11T02:36:30.834Z,16.90
2018-11-11T02:38:59.202Z,15.00
2018-11-11T02:41:27.570Z,14.77
2018-11-11T02:43:57.192Z,14.37
2018-11-11T02:46:25.540Z,16.73
2018-11-11T02:48:54.004Z,13.33
2018-11-11T02:51:22.432Z,13.27
2018-11-11T02:53:50.760Z,13.00
2018-11-11T02:56:19.134Z,12.60
2018-11-11T02:58:47.567Z,13.10
2018-11-11T03:01:15.960Z,13.40
2018-11-11T03:03:44.307Z,12.40
2018-11-11T03:06:12.686Z,12.30
2018-11-11T03:08:41.042Z,13.27
2018-11-11T03:11:09.369Z,11.40
2018-11-11T03:13:37.691Z,12.20
2018-11-11T03:16:06.108Z,12.77
2018-11-11T03:18:34.429Z,11.80
2018-11-11T03:21:02.829Z,12.60
2018-11-11T03:23:31.174Z,13.07
2018-11-11T03:26:00.198Z,12.20
2018-11-11T03:28:28.543Z,11.93
2018-11-11T03:30:56.944Z,11.50
2018-11-11T03:33:25.298Z,13.10
2018-11-11T03:35:53.637Z,12.87
2018-11-11T03:38:21.979Z,11.60
2018-11-11T03:40:50.316Z,12.33
2018-11-11T03:43:18.688Z,13.33
2018-11-11T03:45:47.015Z,12.63
2018-11-11T03:48:15.360Z,14.97
2018-11-11T03:50:43.781Z,14.10
2018-11-11T03:53:12.140Z,12.67
2018-11-11T03:55:40.479Z,12.97
2018-11-11T03:58:08.857Z,13.20
2018-11-11T04:00:37.155Z,11.30
2018-11-11T04:03:05.673Z,11.83
2018-11-11T04:05:34.051Z,12.93
2018-11-11T04:08:02.340Z,12.40
2018-11-11T04:10:30.697Z,12.03
2018-11-11T04:12:59.057Z,13.07
2018-11-11T04:15:27.429Z,11.30
2018-11-11T04:17:55.809Z,10.97
2018-11-11T04:20:24.210Z,11.53
2018-11-11T04:22:52.564Z,11.03
2018-11-11T04:25:20.885Z,11.80
2018-11-11T04:27:49.294Z,11.07
2018-11-11T04:30:17.606Z,10.33
2018-11-11T04:32:45.983Z,11.00
2018-11-11T04:35:14.547Z,11.17
2018-11-11T04:37:42.897Z,10.73
2018-11-11T04:40:12.228Z,10.87
2018-11-11T04:42:40.634Z,10.97
2018-11-11T04:45:10.631Z,11.40
2018-11-11T04:47:38.936Z,11.63
2018-11-11T04:50:08.753Z,10.33
2018-11-11T04:52:37.108Z,11.50
2018-11-11T04:55:05.887Z,10.13
2018-11-11T04:57:34.281Z,9.93
2018-11-11T05:00:02.652Z,11.07
2018-11-11T05:02:31.026Z,10.77
2018-11-11T05:04:59.404Z,9.93
2018-11-11T05:07:27.783Z,9.80
2018-11-11T05:09:56.099Z,10.80
2018-11-11T05:12:24.551Z,9.77
2018-11-11T05:14:52.866Z,9.90
2018-11-11T05:17:21.181Z,9.77
2018-11-11T05:19:49.561Z,9.70
2018-11-11T05:22:17.907Z,9.07
2018-11-11T05:24:46.205Z,9.83
2018-11-11T05:27:14.555Z,8.80
2018-11-11T05:29:42.869Z,8.77
2018-11-11T05:32:11.208Z,8.70
2018-11-11T05:34:39.589Z,9.33
2018-11-11T05:37:07.888Z,9.17
2018-11-11T05:39:36.211Z,8.63
2018-11-11T05:42:04.570Z,9.07
2018-11-11T05:44:32.909Z,9.17
2018-11-11T05:47:01.223Z,8.37
2018-11-11T05:49:29.694Z,9.47
2018-11-11T05:51:58.055Z,8.83
2018-11-11T05:54:26.393Z,9.20
2018-11-11T05:56:54.775Z,8.83
2018-11-11T05:59:23.143Z,9.27
2018-11-11T06:01:51.593Z,9.07
2018-11-11T06:04:19.960Z,9.57
2018-11-11T06:06:48.249Z,9.43
2018-11-11T06:09:16.568Z,9.53
2018-11-11T06:11:44.953Z,9.33
2018-11-11T06:14:13.287Z,8.33
2018-11-11T06:16:41.676Z,9.37
2018-11-11T06:19:10.020Z,8.90
2018-11-11T06:21:38.403Z,9.17
2018-11-11T06:24:06.712Z,9.03
2018-11-11T06:26:35.049Z,9.03
2018-11-11T06:29:03.453Z,8.73
2018-11-11T06:31:31.831Z,9.30
2018-11-11T06:34:00.233Z,8.30
2018-11-11T06:36:28.565Z,7.37
2018-11-11T06:38:56.874Z,7.97
2018-11-11T06:41:32.009Z,7.73
2018-11-11T06:44:00.353Z,8.27
2018-11-11T06:46:29.596Z,8.40
2018-11-11T06:48:57.938Z,8.27
2018-11-11T06:51:26.314Z,7.90
2018-11-11T06:53:54.718Z,8.67
2018-11-11T06:56:23.102Z,7.77
2018-11-11T06:58:51.413Z,7.70
2018-11-11T07:01:19.718Z,7.60
2018-11-11T07:03:52.833Z,7.67
2018-11-11T07:06:21.568Z,8.20
2018-11-11T07:08:49.914Z,7.50
2018-11-11T07:11:18.969Z,7.50
2018-11-11T07:13:47.347Z,7.40
2018-11-11T07:16:15.721Z,7.80
2018-11-11T07:18:45.221Z,7.20
2018-11-11T07:21:13.569Z,6.97
2018-11-11T07:23:42.060Z,7.30
2018-11-11T07:26:10.382Z,7.00
2018-11-11T07:28:38.788Z,7.30
2018-11-11T07:31:07.534Z,7.70
2018-11-11T07:33:35.846Z,7.40
2018-11-11T07:36:04.285Z,6.93
2018-11-11T07:38:32.585Z,7.03
2018-11-11T07:41:01.823Z,7.03
2018-11-11T07:43:30.194Z,7.33
2018-11-11T07:45:58.554Z,6.73
2018-11-11T07:48:26.904Z,7.10
2018-11-11T07:50:55.234Z,7.03
2018-11-11T07:53:23.617Z,7.17
2018-11-11T07:55:51.996Z,7.37
2018-11-11T07:58:20.611Z,7.87
2018-11-11T08:00:48.988Z,6.70
2018-11-11T08:03:17.261Z,7.20
2018-11-11T08:05:46.862Z,6.57
2018-11-11T08:08:15.212Z,6.83
2018-11-11T08:11:54.530Z,6.40
2018-11-11T08:14:22.907Z,6.93
2018-11-11T08:16:51.399Z,6.83
2018-11-11T08:19:19.711Z,6.97
2018-11-11T08:21:48.056Z,7.10
2018-11-11T08:24:16.522Z,7.03
2018-11-11T08:26:44.949Z,7.00
2018-11-11T08:29:13.367Z,6.83
2018-11-11T08:31:42.072Z,6.93
2018-11-11T08:34:10.572Z,6.77
2018-11-11T08:36:38.998Z,6.30
2018-11-11T08:39:09.298Z,6.83
2018-11-11T08:41:38.887Z,6.30
2018-11-11T08:44:07.720Z,6.30
2018-11-11T08:46:36.240Z,6.50
2018-11-11T08:49:04.634Z,6.30
2018-11-11T08:51:33.058Z,6.97
2018-11-11T08:54:01.409Z,6.40
2018-11-11T08:56:30.036Z,6.60
2018-11-11T08:58:58.538Z,6.37
2018-11-11T09:01:26.914Z,7.10
2018-11-11T09:03:55.255Z,6.60
2018-11-11T09:06:23.726Z,6.53
2018-11-11T09:08:52.106Z,6.63
2018-11-11T09:11:20.980Z,6.47
2018-11-11T09:13:49.853Z,6.70
2018-11-11T09:16:18.310Z,6.83
2018-11-11T09:18:46.804Z,8.00
2018-11-11T09:21:15.200Z,7.47
2018-11-11T09:23:43.641Z,8.17
2018-11-11T09:26:12.021Z,7.10
2018-11-11T09:28:40.344Z,7.40
2018-11-11T09:31:08.748Z,7.57
2018-11-11T09:33:37.358Z,7.03
2018-11-11T09:36:06.547Z,6.67
2018-11-11T09:38:35.018Z,6.67
2018-11-11T09:41:03.511Z,6.63
2018-11-11T09:43:31.925Z,6.40
2018-11-11T09:46:00.292Z,6.93
2018-11-11T09:48:28.794Z,6.00
2018-11-11T09:50:57.463Z,6.10
2018-11-11T09:53:26.064Z,6.57
2018-11-11T09:55:54.503Z,6.53
2018-11-11T09:58:22.871Z,6.80
2018-11-11T10:00:51.339Z,6.17
2018-11-11T10:05:28.600Z,6.27
2018-11-11T10:08:12.561Z,6.43
2018-11-11T10:11:16.970Z,5.73
2018-11-11T10:13:50.405Z,5.97
2018-11-11T10:16:23.978Z,6.87
2018-11-11T10:21:05.964Z,6.60
2018-11-11T10:23:53.516Z,5.83
2018-11-11T10:26:27.116Z,5.87
2018-11-11T10:29:03.652Z,6.03
2018-11-11T10:31:39.771Z,5.53
2018-11-11T10:34:15.995Z,6.47
2018-11-11T10:36:57.943Z,6.37
2018-11-11T10:39:30.487Z,6.60
2018-11-11T10:42:04.596Z,6.60
2018-11-11T10:45:41.899Z,5.67
2018-11-11T10:48:11.605Z,5.73
2018-11-11T10:50:43.150Z,6.10
2018-11-11T10:53:11.582Z,5.73
2018-11-11T10:55:39.944Z,5.37
2018-11-11T10:58:08.292Z,5.73
2018-11-11T11:00:41.916Z,6.20
2018-11-11T11:03:15.633Z,5.63
2018-11-11T11:05:44.074Z,5.83
2018-11-11T11:08:12.462Z,5.90
2018-11-11T11:10:40.854Z,5.30
2018-11-11T11:13:10.153Z,5.93
2018-11-11T11:15:38.484Z,5.50
2018-11-11T11:18:06.852Z,5.07
2018-11-11T11:20:35.249Z,5.10
2018-11-11T11:23:04.536Z,5.33
2018-11-11T11:25:32.957Z,5.90
2018-11-11T11:28:01.405Z,5.20
2018-11-11T11:30:29.860Z,5.27
2018-11-11T11:32:58.206Z,5.43
2018-11-11T11:35:26.699Z,4.90
2018-11-11T11:37:55.095Z,6.17
2018-11-11T11:40:23.551Z,6.13
2018-11-11T11:42:51.998Z,7.23
2018-11-11T11:45:20.473Z,7.00
2018-11-11T11:47:49.149Z,5.63
2018-11-11T11:50:17.696Z,5.63
2018-11-11T11:52:46.222Z,5.80
2018-11-11T11:55:15.228Z,5.13
2018-11-11T11:57:43.715Z,6.37
2018-11-11T12:00:13.751Z,4.33
2018-11-11T12:02:42.259Z,4.73
2018-11-11T12:05:10.999Z,4.13
2018-11-11T12:07:39.705Z,3.90
2018-11-11T12:10:09.590Z,4.60
2018-11-11T12:12:38.160Z,3.53
2018-11-11T12:15:07.667Z,3.10
2018-11-11T12:17:36.193Z,3.67
2018-11-11T12:20:05.159Z,3.57
2018-11-11T12:22:33.969Z,4.03
2018-11-11T12:25:02.371Z,4.50
2018-11-11T12:27:30.814Z,5.20
2018-11-11T12:29:59.407Z,4.47
2018-11-11T12:32:27.811Z,2.87
2018-11-11T12:34:56.299Z,3.60
2018-11-11T12:37:24.725Z,4.37
2018-11-11T12:39:53.401Z,4.10
2018-11-11T12:42:21.726Z,3.70
2018-11-11T12:44:50.187Z,7.10
2018-11-11T12:47:19.274Z,4.63
2018-11-11T12:49:47.765Z,3.77
2018-11-11T12:52:16.304Z,4.93
2018-11-11T12:54:44.834Z,4.83
2018-11-11T12:57:13.233Z,4.50
2018-11-11T12:59:41.597Z,5.40
2018-11-11T13:02:10.068Z,4.10
2018-11-11T13:04:38.525Z,3.47
2018-11-11T13:07:07.045Z,2.20
2018-11-11T13:09:35.423Z,3.00
2018-11-11T13:12:03.918Z,3.43
2018-11-11T13:14:32.333Z,2.20
2018-11-11T13:17:00.760Z,3.23
2018-11-11T13:19:29.209Z,2.70
2018-11-11T13:21:57.811Z,3.43
2018-11-11T13:24:26.160Z,2.00
2018-11-11T13:26:54.578Z,2.33
2018-11-11T13:29:22.920Z,2.90
2018-11-11T13:31:51.359Z,3.40
2018-11-11T13:34:19.780Z,2.60
2018-11-11T13:36:48.545Z,2.10
2018-11-11T13:39:17.461Z,2.43
2018-11-11T13:41:46.131Z,1.80
2018-11-11T13:44:14.707Z,2.07
2018-11-11T13:46:43.122Z,1.90
2018-11-11T13:49:11.676Z,2.67
2018-11-11T13:51:40.129Z,6.77
2018-11-11T13:54:08.519Z,3.63
2018-11-11T13:56:37.097Z,4.23
2018-11-11T13:59:05.737Z,3.53
2018-11-11T14:01:35.685Z,3.77
2018-11-11T14:04:04.174Z,1.90
2018-11-11T14:06:32.570Z,3.57
2018-11-11T14:09:01.152Z,3.40
2018-11-11T14:11:29.582Z,4.13
2018-11-11T14:13:57.898Z,4.90
2018-11-11T14:16:26.392Z,3.70
2018-11-11T14:18:55.208Z,5.40
2018-11-11T14:21:23.363Z,4.20
2018-11-11T14:23:52.086Z,4.50
2018-11-11T14:26:20.872Z,3.87
2018-11-11T14:28:49.224Z,3.23
2018-11-11T14:31:17.607Z,4.10
2018-11-11T14:33:46.203Z,2.30
2018-11-11T14:36:14.651Z,4.77
2018-11-11T14:38:43.074Z,3.07
2018-11-11T14:41:11.841Z,9.00
2018-11-11T14:43:40.393Z,10.07
2018-11-11T14:46:08.926Z,10.03
2018-11-11T14:48:37.453Z,18.17
2018-11-11T14:51:06.128Z,12.50
2018-11-11T14:53:34.582Z,11.13
2018-11-11T14:56:03.377Z,6.87
2018-11-11T14:58:31.939Z,8.60
2018-11-11T15:01:00.408Z,10.80
2018-11-11T15:03:28.896Z,10.10
2018-11-11T15:05:57.285Z,6.03
2018-11-11T15:08:25.727Z,5.10
2018-11-11T15:10:54.181Z,3.87
2018-11-11T15:13:22.568Z,3.93
2018-11-11T15:15:51.175Z,2.60
2018-11-11T15:18:19.628Z,4.17
2018-11-11T15:20:48.652Z,6.77
2018-11-11T15:23:16.980Z,6.37
2018-11-11T15:25:52.462Z,13.10
2018-11-11T15:28:20.981Z,6.13
2018-11-11T15:30:49.500Z,7.67
2018-11-11T15:33:17.970Z,5.60
2018-11-11T15:35:46.642Z,10.40
2018-11-11T15:38:14.965Z,6.50
2018-11-11T15:40:43.319Z,9.57
2018-11-11T15:43:11.730Z,5.83
2018-11-11T15:45:40.130Z,4.70
2018-11-11T15:48:08.783Z,7.50
2018-11-11T15:50:37.659Z,6.77
2018-11-11T15:53:07.633Z,5.63
2018-11-11T15:55:37.382Z,5.47
2018-11-11T15:58:06.302Z,4.30
2018-11-11T16:00:36.199Z,4.13
2018-11-11T16:03:04.801Z,3.40
2018-11-11T16:05:33.176Z,4.13
2018-11-11T16:08:02.077Z,5.70
2018-11-11T16:10:31.695Z,11.23
2018-11-11T16:13:00.192Z,7.07
2018-11-11T16:15:30.089Z,8.90
2018-11-11T16:18:01.974Z,10.50
2018-11-11T16:20:30.986Z,7.60
2018-11-11T16:23:00.503Z,4.67
2018-11-11T16:25:29.150Z,3.40
2018-11-11T16:27:57.747Z,9.20
2018-11-11T16:30:28.546Z,19.87
2018-11-11T16:32:57.787Z,17.10
2018-11-11T16:35:27.089Z,19.30
2018-11-11T16:37:55.800Z,16.60
2018-11-11T16:40:26.721Z,26.50
2018-11-11T16:42:55.433Z,27.13
2018-11-11T16:45:25.146Z,14.30
2018-11-11T16:47:53.633Z,9.30
2018-11-11T16:50:24.766Z,11.17
2018-11-11T16:52:54.058Z,17.63
2018-11-11T16:55:23.991Z,20.40
2018-11-11T16:57:52.607Z,10.00
2018-11-11T17:00:24.442Z,12.50
2018-11-11T17:02:53.197Z,11.17
2018-11-11T17:05:22.996Z,11.33
2018-11-11T17:07:51.833Z,9.40
2018-11-11T17:10:21.575Z,4.27
2018-11-11T17:12:50.996Z,10.53
2018-11-11T17:15:20.970Z,14.27
2018-11-11T17:17:49.343Z,15.07
2018-11-11T17:20:19.030Z,11.80
2018-11-11T17:22:48.447Z,14.17
2018-11-11T17:25:17.592Z,9.17
2018-11-11T17:27:46.532Z,7.77
2018-11-11T17:30:18.877Z,5.73
2018-11-11T17:32:48.324Z,4.00
2018-11-11T17:35:16.667Z,5.00
2018-11-11T17:37:45.342Z,4.53
2018-11-11T17:40:15.888Z,6.23
2018-11-11T17:42:45.394Z,8.20
2018-11-11T17:45:14.572Z,7.50
2018-11-11T17:47:43.761Z,9.87
2018-11-11T17:50:15.128Z,10.47
2018-11-11T17:52:43.699Z,10.07
2018-11-11T17:55:13.543Z,6.17
2018-11-11T17:57:42.902Z,6.93
2018-11-11T18:00:13.061Z,6.30
2018-11-11T18:02:41.496Z,7.53
2018-11-11T18:05:11.457Z,9.17
2018-11-11T18:07:40.762Z,12.03
2018-11-11T18:10:15.813Z,9.50
2018-11-11T18:12:44.525Z,7.37
2018-11-11T18:15:14.428Z,4.87
2018-11-11T18:17:43.256Z,4.00
2018-11-11T18:20:17.985Z,4.70
2018-11-11T18:22:46.937Z,4.73
2018-11-11T18:25:15.489Z,4.23
2018-11-11T18:27:43.988Z,4.27
2018-11-11T18:30:16.245Z,2.93
2018-11-11T18:32:45.006Z,2.17
2018-11-11T18:35:14.689Z,3.50
2018-11-11T18:37:43.161Z,16.13
2018-11-11T18:40:13.213Z,9.57
2018-11-11T18:42:42.805Z,3.27
2018-11-11T18:45:13.680Z,3.43
2018-11-11T18:47:42.101Z,3.03
2018-11-11T18:50:13.246Z,3.70
2018-11-11T18:52:41.763Z,3.60
2018-11-11T18:55:10.773Z,4.30
2018-11-11T18:57:39.674Z,7.73
2018-11-11T19:00:19.597Z,6.03
2018-11-11T19:02:49.174Z,5.67
2018-11-11T19:05:18.405Z,5.60
2018-11-11T19:07:47.395Z,6.20
2018-11-11T19:10:17.445Z,3.30
2018-11-11T19:12:46.833Z,3.80
2018-11-11T19:15:16.253Z,6.10
2018-11-11T19:17:45.704Z,5.50
2018-11-11T19:20:15.344Z,3.80
2018-11-11T19:22:43.822Z,3.00
2018-11-11T19:25:14.553Z,2.57
2018-11-11T19:27:45.216Z,3.17
2018-11-11T19:30:14.689Z,4.00
2018-11-11T19:32:43.825Z,4.50
2018-11-11T19:35:13.297Z,5.00
2018-11-11T19:37:42.365Z,3.33
2018-11-11T19:40:14.435Z,3.03
2018-11-11T19:42:43.272Z,3.90
2018-11-11T19:45:13.861Z,3.50
2018-11-11T19:47:43.160Z,3.63
2018-11-11T19:50:14.339Z,3.13
2018-11-11T19:52:44.423Z,9.93
2018-11-11T19:55:13.743Z,9.03
2018-11-11T19:57:42.800Z,6.53
2018-11-11T20:00:14.700Z,8.13
2018-11-11T20:02:44.391Z,6.43
2018-11-11T20:05:14.098Z,6.63
2018-11-11T20:07:43.877Z,10.27
2018-11-11T20:10:13.801Z,8.77
2018-11-11T20:12:42.595Z,8.73
2018-11-11T20:15:13.969Z,5.97
2018-11-11T20:17:42.841Z,3.33
2018-11-11T20:20:14.512Z,2.77
2018-11-11T20:22:43.199Z,2.90
2018-11-11T20:25:13.080Z,2.07
2018-11-11T20:27:42.944Z,4.90
2018-11-11T20:30:14.519Z,4.70
2018-11-11T20:32:43.780Z,7.20
2018-11-11T20:35:14.565Z,6.47
2018-11-11T20:37:42.940Z,6.30
2018-11-11T20:40:13.171Z,5.50
2018-11-11T20:42:43.014Z,3.00
2018-11-11T20:45:13.261Z,3.10
2018-11-11T20:47:42.626Z,3.30
2018-11-11T20:50:16.914Z,2.80
2018-11-11T20:52:46.608Z,2.77
2018-11-11T20:55:15.826Z,2.10
2018-11-11T20:57:45.085Z,2.33
2018-11-11T21:00:15.982Z,3.47
2018-11-11T21:02:45.457Z,3.93
2018-11-11T21:05:15.217Z,6.33
2018-11-11T21:07:43.695Z,7.13
2018-11-11T21:10:14.613Z,4.07
2018-11-11T21:12:43.102Z,3.37
2018-11-11T21:15:13.691Z,3.60
2018-11-11T21:17:42.938Z,3.23
2018-11-11T21:20:13.274Z,2.80
2018-11-11T21:22:42.526Z,2.80
2018-11-11T21:25:11.313Z,2.50
2018-11-11T21:27:40.594Z,2.43
2018-11-11T21:30:11.479Z,2.23
2018-11-11T21:32:39.909Z,2.33
2018-11-11T21:35:08.603Z,2.27
2018-11-11T21:37:37.067Z,1.60
2018-11-11T21:40:08.352Z,2.70
2018-11-11T21:42:37.139Z,2.00
2018-11-11T21:45:06.309Z,1.73
2018-11-11T21:47:34.893Z,1.63
2018-11-11T21:50:03.371Z,2.23
2018-11-11T21:52:31.704Z,1.50
2018-11-11T21:55:00.096Z,1.93
2018-11-11T21:57:28.501Z,1.73
2018-11-11T21:59:56.855Z,2.37
2018-11-11T22:02:25.399Z,2.63
2018-11-11T22:04:53.728Z,3.23
2018-11-11T22:07:22.348Z,3.20
2018-11-11T22:09:50.974Z,3.07
2018-11-11T22:12:19.441Z,2.80
2018-11-11T22:14:48.103Z,2.97
2018-11-11T22:17:16.587Z,3.30
2018-11-11T22:19:45.034Z,3.53
2018-11-11T22:22:13.899Z,5.40
2018-11-11T22:24:42.347Z,5.00
2018-11-11T22:27:10.732Z,3.40
2018-11-11T22:29:39.209Z,7.23
2018-11-11T22:32:08.547Z,5.90
2018-11-11T22:34:37.004Z,5.57
2018-11-11T22:37:05.954Z,3.47
2018-11-11T22:39:34.711Z,2.97
2018-11-11T22:42:03.124Z,3.50
2018-11-11T22:44:31.596Z,3.10
2018-11-11T22:46:59.897Z,4.33
2018-11-11T22:49:28.213Z,7.40
2018-11-11T22:51:56.545Z,12.83
2018-11-11T22:54:24.868Z,6.00
2018-11-11T22:56:53.256Z,6.93
2018-11-11T22:59:21.695Z,4.30
2018-11-11T23:01:50.163Z,3.47
2018-11-11T23:04:18.639Z,3.80
2018-11-11T23:06:46.989Z,3.30
2018-11-11T23:09:15.276Z,4.63
2018-11-11T23:11:43.649Z,3.03
2018-11-11T23:14:12.037Z,3.20
2018-11-11T23:16:40.454Z,3.80
2018-11-11T23:19:08.872Z,2.83
2018-11-11T23:21:37.323Z,5.83
2018-11-11T23:24:06.622Z,6.23
2018-11-11T23:26:35.036Z,5.43
2018-11-11T23:29:03.457Z,5.13
2018-11-11T23:31:31.908Z,6.00
2018-11-11T23:34:00.557Z,8.30
2018-11-11T23:36:28.993Z,5.00
2018-11-11T23:38:57.852Z,5.73
2018-11-11T23:41:26.652Z,3.23
2018-11-11T23:43:55.459Z,4.53
2018-11-11T23:46:24.274Z,5.23
2018-11-11T23:48:52.915Z,6.13
2018-11-11T23:51:21.767Z,4.90
2018-11-11T23:53:50.606Z,4.70
2018-11-11T23:56:19.264Z,4.70
2018-11-11T23:58:47.815Z,3.10
